KHBR

UTC

Hobart Regional Airport

Hobart, Oklahoma, United States

METAR - Current

KHBR 282253Z AUTO 18016G27KT 10SM CLR 34/11 A2988 RMK AO2 PK WND 16027/2246 SLP098 T03440111

Observed

Sep 28 22:53 UTC

Flight Rules

VFR

Wind

180° at 16 KTS
Gusting to 27 KTS

Visibility

10 SM

Clouds

  • Clear skies

Temperature

34°C=93°F

Dew Point

11°C=52°F

Humidity

24%

Altimeter

29.88 Hg

Pressure

1012.0 hPa

METAR - Previous

KHBR 282153Z AUTO 18015G23KT 10SM CLR 35/11 A2988 RMK AO2 PK WND 18028/2107 SLP096 T03500111

Observed

Sep 28 21:53 UTC

Flight Rules

VFR

Wind

180° at 15 KTS
Gusting to 23 KTS

Visibility

10 SM

Clouds

  • Clear skies

Temperature

35°C=95°F

Dew Point

11°C=52°F

Humidity

23%

Altimeter

29.88 Hg

Pressure

1012.0 hPa